Time;durP1;ratioP1;P1;durP2;ratioP2;P2;SDS_P1;SDS_P2;PMS_P1;PMS_P2;Temp;Humidity;BMP_temperature;BMP_pressure;BME280_temperature;BME280_humidity;BME280_pressure;Samples;Min_cycle;Max_cycle;Signal;HPM_P1;HPM_P2
2022/06/02 00:01:36;;;;;;;4.50;3.00;;;;;;;;;;5012805;28;20489;-52
2022/06/02 00:04:11;;;;;;;5.60;3.37;;;;;;;;;;5007330;28;20527;-51
2022/06/02 00:06:39;;;;;;;6.88;3.42;;;;;;;;;;5001290;28;20049;-51
2022/06/02 00:09:04;;;;;;;5.00;3.20;;;;;;;;;;5004344;28;20489;-52
2022/06/02 00:11:29;;;;;;;6.73;3.30;;;;;;;;;;5006482;28;20097;-51
2022/06/02 00:14:01;;;;;;;7.57;3.20;;;;;;;;;;5003891;28;20691;-51
2022/06/02 00:16:46;;;;;;;5.05;3.60;;;;;;;;;;4988959;28;20265;-52
2022/06/02 00:19:17;;;;;;;6.80;3.45;;;;;;;;;;4984064;28;21440;-51
2022/06/02 00:21:46;;;;;;;7.32;3.25;;;;;;;;;;4996740;28;20025;-51
2022/06/02 00:24:28;;;;;;;4.73;3.33;;;;;;;;;;5004106;28;20026;-51
2022/06/02 00:27:06;;;;;;;5.95;3.40;;;;;;;;;;5001549;28;20034;-51
2022/06/02 00:29:34;;;;;;;6.72;2.97;;;;;;;;;;5003045;28;20034;-51
2022/06/02 00:32:03;;;;;;;6.28;3.20;;;;;;;;;;4996305;28;20149;-52
2022/06/02 00:34:48;;;;;;;4.78;2.90;;;;;;;;;;4996993;28;20034;-52
2022/06/02 00:37:32;;;;;;;6.40;3.25;;;;;;;;;;5001353;28;20044;-55
2022/06/02 00:39:57;;;;;;;6.28;3.13;;;;;;;;;;5000327;28;20085;-51
2022/06/02 00:42:41;;;;;;;5.30;3.33;;;;;;;;;;5001830;28;20061;-51
2022/06/02 00:45:11;;;;;;;5.60;3.13;;;;;;;;;;5007811;28;20319;-50
2022/06/02 00:47:54;;;;;;;4.80;2.80;;;;;;;;;;4982453;28;20108;-51
2022/06/02 00:50:26;;;;;;;6.05;3.28;;;;;;;;;;4987512;28;20033;-52
2022/06/02 00:52:53;;;;;;;5.03;3.10;;;;;;;;;;5003878;28;20109;-51
2022/06/02 00:58:18;;;;;;;4.80;2.95;;;;;;;;;;4999046;28;20788;-50
2022/06/02 01:00:44;;;;;;;5.82;3.30;;;;;;;;;;5000642;28;20400;-51
2022/06/02 01:03:11;;;;;;;6.38;3.30;;;;;;;;;;4997335;28;20021;-54
2022/06/02 01:05:39;;;;;;;7.80;4.00;;;;;;;;;;4998679;28;20060;-54
2022/06/02 01:08:07;;;;;;;7.20;3.47;;;;;;;;;;4989406;28;20048;-51
2022/06/02 01:10:39;;;;;;;6.55;3.10;;;;;;;;;;4992386;28;20030;-53
2022/06/02 01:13:16;;;;;;;7.25;3.05;;;;;;;;;;4998649;28;20021;-51
2022/06/02 01:15:51;;;;;;;4.80;3.30;;;;;;;;;;4995003;28;20096;-51
2022/06/02 01:18:32;;;;;;;5.35;3.13;;;;;;;;;;4993757;28;20026;-52
2022/06/02 01:21:07;;;;;;;5.95;3.10;;;;;;;;;;5002046;28;20029;-53
2022/06/02 01:23:47;;;;;;;6.28;3.10;;;;;;;;;;5006373;28;20014;-51
2022/06/02 01:26:24;;;;;;;5.85;3.30;;;;;;;;;;4987381;28;20527;-51
2022/06/02 01:28:59;;;;;;;5.63;3.50;;;;;;;;;;4999348;28;20033;-50
2022/06/02 01:31:25;;;;;;;4.60;3.05;;;;;;;;;;5001946;28;20053;-55
2022/06/02 01:34:02;;;;;;;5.97;3.23;;;;;;;;;;5005734;28;20026;-51
2022/06/02 01:36:39;;;;;;;5.50;3.00;;;;;;;;;;5005290;28;20032;-51
2022/06/02 01:39:17;;;;;;;9.77;3.28;;;;;;;;;;5005321;28;20062;-52
2022/06/02 01:41:46;;;;;;;6.78;3.47;;;;;;;;;;5000553;28;20109;-51
2022/06/02 01:44:14;;;;;;;5.70;3.10;;;;;;;;;;5001468;28;20037;-51
2022/06/02 01:46:51;;;;;;;6.28;3.03;;;;;;;;;;5007672;28;20025;-52
2022/06/02 01:49:28;;;;;;;4.20;3.08;;;;;;;;;;4994580;28;20161;-51
2022/06/02 01:51:56;;;;;;;5.28;3.03;;;;;;;;;;5002131;28;20065;-51
2022/06/02 01:54:22;;;;;;;4.07;3.00;;;;;;;;;;5002234;28;20034;-54
2022/06/02 01:56:47;;;;;;;5.50;3.37;;;;;;;;;;5003229;28;20026;-52
2022/06/02 01:59:22;;;;;;;5.57;3.10;;;;;;;;;;5003351;28;20775;-53
2022/06/02 02:01:47;;;;;;;4.95;3.38;;;;;;;;;;5002076;28;20022;-52
2022/06/02 02:04:12;;;;;;;7.37;3.40;;;;;;;;;;5004158;28;20109;-52
2022/06/02 02:06:40;;;;;;;7.00;3.30;;;;;;;;;;4986068;28;20133;-51
2022/06/02 02:09:06;;;;;;;4.15;3.10;;;;;;;;;;5003217;28;20556;-52
2022/06/02 02:11:36;;;;;;;5.38;3.00;;;;;;;;;;5005740;28;20034;-53
2022/06/02 02:14:07;;;;;;;7.32;3.20;;;;;;;;;;4986030;28;20412;-53
2022/06/02 02:16:51;;;;;;;5.50;3.28;;;;;;;;;;5000381;28;20136;-51
2022/06/02 02:19:16;;;;;;;7.70;3.20;;;;;;;;;;5006171;28;20127;-55
2022/06/02 02:21:47;;;;;;;5.85;3.38;;;;;;;;;;5003172;28;20068;-55
2022/06/02 02:24:28;;;;;;;8.18;3.60;;;;;;;;;;5007307;28;20025;-51
2022/06/02 02:26:56;;;;;;;5.32;2.90;;;;;;;;;;5005941;28;20029;-51
2022/06/02 02:29:40;;;;;;;7.57;3.38;;;;;;;;;;5004620;28;20594;-51
2022/06/02 02:32:08;;;;;;;7.00;3.20;;;;;;;;;;5008649;28;20523;-52
2022/06/02 02:34:36;;;;;;;7.88;3.08;;;;;;;;;;5015999;28;20117;-52
2022/06/02 02:37:04;;;;;;;5.50;3.13;;;;;;;;;;5029599;28;20096;-52
2022/06/02 02:39:38;;;;;;;8.50;3.53;;;;;;;;;;5028677;28;20021;-50
2022/06/02 02:42:06;;;;;;;5.57;3.17;;;;;;;;;;5005710;28;20033;-51
2022/06/02 02:44:31;;;;;;;5.32;3.22;;;;;;;;;;5026269;28;20021;-52
2022/06/02 02:47:16;;;;;;;6.07;3.07;;;;;;;;;;5028644;28;20041;-50
2022/06/02 02:49:41;;;;;;;5.47;3.38;;;;;;;;;;5026328;28;20156;-52
2022/06/02 02:52:21;;;;;;;7.10;3.40;;;;;;;;;;5025346;28;20101;-53
2022/06/02 02:55:13;;;;;;;6.65;3.22;;;;;;;;;;5024612;28;20059;-53
2022/06/02 02:57:50;;;;;;;7.68;3.25;;;;;;;;;;5023215;28;20171;-51
2022/06/02 03:00:20;;;;;;;6.28;3.33;;;;;;;;;;5026199;28;20428;-52
2022/06/02 03:02:51;;;;;;;5.47;3.03;;;;;;;;;;5024467;28;20037;-52
2022/06/02 03:05:16;;;;;;;6.90;2.90;;;;;;;;;;5024805;28;20029;-51
2022/06/02 03:07:41;;;;;;;9.10;3.47;;;;;;;;;;5023360;28;20028;-53
2022/06/02 03:10:07;;;;;;;6.53;3.40;;;;;;;;;;5027279;28;20030;-54
2022/06/02 03:12:51;;;;;;;6.47;3.53;;;;;;;;;;5026076;28;20260;-50
2022/06/02 03:15:28;;;;;;;7.50;3.20;;;;;;;;;;5028258;28;20025;-52
2022/06/02 03:17:59;;;;;;;9.40;3.17;;;;;;;;;;5022345;28;20025;-56
2022/06/02 03:20:51;;;;;;;5.82;3.47;;;;;;;;;;5025955;28;20099;-52
2022/06/02 03:23:35;;;;;;;7.68;3.63;;;;;;;;;;5021815;28;20165;-51
2022/06/02 03:26:02;;;;;;;7.82;3.53;;;;;;;;;;5022515;28;20391;-54
2022/06/02 03:28:28;;;;;;;6.05;3.42;;;;;;;;;;5023310;28;20021;-53
2022/06/02 03:30:56;;;;;;;9.70;3.53;;;;;;;;;;5020420;28;20104;-55
2022/06/02 03:33:40;;;;;;;6.85;3.50;;;;;;;;;;5020464;28;20108;-53
2022/06/02 03:36:08;;;;;;;5.88;3.45;;;;;;;;;;5019683;28;20379;-55
2022/06/02 03:38:52;;;;;;;7.00;3.75;;;;;;;;;;5024229;28;20041;-52
2022/06/02 03:41:36;;;;;;;6.75;3.10;;;;;;;;;;5021550;28;20018;-53
2022/06/02 03:44:13;;;;;;;7.35;3.28;;;;;;;;;;5021780;28;20497;-53
2022/06/02 03:46:43;;;;;;;5.97;3.22;;;;;;;;;;5003080;28;20040;-53
2022/06/02 03:49:14;;;;;;;8.30;3.78;;;;;;;;;;5016502;28;20018;-52
2022/06/02 03:51:39;;;;;;;6.10;3.67;;;;;;;;;;5022764;28;20037;-51
2022/06/02 03:54:08;;;;;;;9.50;3.63;;;;;;;;;;5020173;28;20026;-52
2022/06/02 03:56:51;;;;;;;7.38;4.05;;;;;;;;;;5013024;28;20493;-52
2022/06/02 03:59:35;;;;;;;5.05;3.75;;;;;;;;;;5015344;28;20025;-53
2022/06/02 04:02:01;;;;;;;8.30;3.83;;;;;;;;;;5015579;28;20027;-52
2022/06/02 04:04:45;;;;;;;6.38;3.65;;;;;;;;;;5018247;28;20021;-52
2022/06/02 04:07:15;;;;;;;5.18;3.42;;;;;;;;;;5020226;28;20100;-51
2022/06/02 04:09:59;;;;;;;6.82;3.58;;;;;;;;;;5019893;28;20116;-51
2022/06/02 04:15:14;;;;;;;;;;;;;;;;;;5015528;28;20040;-53
2022/06/02 04:17:42;;;;;;;6.88;3.75;;;;;;;;;;5022621;28;19916;-52
2022/06/02 04:22:57;;;;;;;8.30;4.40;;;;;;;;;;5013045;28;20511;-51
2022/06/02 04:25:41;;;;;;;6.13;4.13;;;;;;;;;;5017547;28;20028;-52
2022/06/02 04:28:25;;;;;;;6.75;3.70;;;;;;;;;;4999062;28;20052;-51
2022/06/02 04:30:51;;;;;;;6.80;3.88;;;;;;;;;;5019091;28;20045;-52
2022/06/02 04:33:19;;;;;;;9.02;4.38;;;;;;;;;;5020740;28;20032;-52
2022/06/02 04:36:03;;;;;;;6.43;4.28;;;;;;;;;;5016037;28;20060;-52
2022/06/02 04:38:28;;;;;;;10.95;4.30;;;;;;;;;;5012569;28;20057;-54
2022/06/02 04:40:59;;;;;;;8.10;4.13;;;;;;;;;;5023481;28;20056;-55
2022/06/02 04:43:28;;;;;;;6.55;4.00;;;;;;;;;;5019663;28;20052;-52
2022/06/02 04:45:59;;;;;;;7.88;4.28;;;;;;;;;;5014552;28;20482;-51
2022/06/02 04:48:25;;;;;;;8.23;4.28;;;;;;;;;;5017264;28;20052;-52
2022/06/02 04:51:12;;;;;;;7.03;4.35;;;;;;;;;;5020857;28;20046;-51
2022/06/02 04:53:41;;;;;;;8.13;4.90;;;;;;;;;;5018587;28;20021;-51
2022/06/02 04:56:20;;;;;;;7.43;4.68;;;;;;;;;;5000503;28;20061;-54
2022/06/02 04:58:48;;;;;;;6.85;4.57;;;;;;;;;;5002730;28;20041;-53
2022/06/02 05:01:16;;;;;;;7.28;4.32;;;;;;;;;;5003563;28;20029;-53
2022/06/02 05:03:46;;;;;;;11.05;4.72;;;;;;;;;;5015701;28;20501;-52
2022/06/02 05:06:24;;;;;;;8.43;4.30;;;;;;;;;;5003408;28;20022;-52
2022/06/02 05:08:55;;;;;;;7.20;4.40;;;;;;;;;;5015988;28;20413;-52
2022/06/02 05:11:35;;;;;;;9.18;4.80;;;;;;;;;;5017826;28;20029;-52
2022/06/02 05:14:03;;;;;;;5.97;4.68;;;;;;;;;;5020129;28;20033;-52
2022/06/02 05:16:32;;;;;;;6.95;4.25;;;;;;;;;;5016678;28;20024;-51
2022/06/02 05:19:08;;;;;;;8.27;4.50;;;;;;;;;;5018761;28;20373;-52
2022/06/02 05:21:38;;;;;;;6.68;4.20;;;;;;;;;;5019271;28;20076;-54
2022/06/02 05:24:24;;;;;;;10.02;4.70;;;;;;;;;;5001122;28;20068;-52
2022/06/02 05:27:08;;;;;;;8.13;4.45;;;;;;;;;;5021846;28;20036;-53
2022/06/02 05:29:34;;;;;;;9.27;4.53;;;;;;;;;;5018317;28;20013;-52
2022/06/02 05:32:00;;;;;;;9.82;4.80;;;;;;;;;;5020669;28;20494;-51
2022/06/02 05:34:43;;;;;;;8.23;4.45;;;;;;;;;;5017160;28;20473;-52
2022/06/02 05:37:23;;;;;;;6.93;4.13;;;;;;;;;;5016610;28;20737;-53
2022/06/02 05:39:52;;;;;;;7.40;4.50;;;;;;;;;;5023213;28;20041;-52
2022/06/02 05:42:23;;;;;;;9.80;4.78;;;;;;;;;;5020670;28;20033;-52
2022/06/02 05:44:58;;;;;;;8.73;4.60;;;;;;;;;;5020573;28;20021;-52
2022/06/02 05:47:27;;;;;;;7.25;4.30;;;;;;;;;;5014788;28;20057;-52
2022/06/02 05:49:56;;;;;;;7.75;4.45;;;;;;;;;;5014862;28;20030;-51
2022/06/02 05:52:23;;;;;;;6.70;4.07;;;;;;;;;;5016944;28;20173;-53
2022/06/02 05:55:00;;;;;;;9.05;4.82;;;;;;;;;;5018096;28;20338;-51
2022/06/02 05:57:28;;;;;;;8.73;4.72;;;;;;;;;;5017582;28;20040;-52
2022/06/02 05:59:53;;;;;;;9.07;4.32;;;;;;;;;;5017603;28;20079;-54
2022/06/02 06:02:33;;;;;;;12.48;4.78;;;;;;;;;;5021351;28;20025;-51
2022/06/02 06:05:14;;;;;;;8.07;3.93;;;;;;;;;;5021386;28;20496;-51
2022/06/02 06:07:50;;;;;;;7.88;4.40;;;;;;;;;;5019053;28;20263;-52
2022/06/02 06:10:20;;;;;;;9.60;4.45;;;;;;;;;;5002603;28;20120;-53
2022/06/02 06:13:12;;;;;;;6.72;3.97;;;;;;;;;;5000315;28;20128;-53
2022/06/02 06:15:49;;;;;;;7.97;4.38;;;;;;;;;;5015317;28;20033;-52
2022/06/02 06:18:20;;;;;;;8.20;4.50;;;;;;;;;;5015282;28;20057;-52
2022/06/02 06:20:48;;;;;;;8.38;4.50;;;;;;;;;;5010122;28;20021;-52
2022/06/02 06:23:28;;;;;;;8.80;5.47;;;;;;;;;;5010790;28;20025;-52
2022/06/02 06:25:56;;;;;;;11.50;5.32;;;;;;;;;;5016212;28;20036;-53
2022/06/02 06:28:23;;;;;;;8.80;4.80;;;;;;;;;;5021007;28;20432;-51
2022/06/02 06:31:03;;;;;;;7.57;4.78;;;;;;;;;;5017566;28;20089;-51
2022/06/02 06:33:40;;;;;;;8.73;4.40;;;;;;;;;;5021303;28;20025;-52
2022/06/02 06:36:28;;;;;;;7.90;5.05;;;;;;;;;;5024450;28;20032;-52
2022/06/02 06:39:14;;;;;;;8.75;4.60;;;;;;;;;;4993493;28;20025;-52
2022/06/02 06:41:39;;;;;;;8.13;4.68;;;;;;;;;;5018986;28;20505;-50
2022/06/02 06:44:20;;;;;;;9.73;4.90;;;;;;;;;;5022860;28;20033;-55
2022/06/02 06:46:48;;;;;;;8.60;5.45;;;;;;;;;;5015336;28;20069;-53
2022/06/02 06:49:23;;;;;;;11.60;5.18;;;;;;;;;;5018620;28;20108;-53
2022/06/02 06:51:55;;;;;;;11.98;4.70;;;;;;;;;;5015146;28;20518;-51
2022/06/02 06:54:31;;;;;;;8.70;4.70;;;;;;;;;;5017909;28;20144;-53
2022/06/02 06:57:17;;;;;;;8.48;4.53;;;;;;;;;;5020587;28;20022;-53
2022/06/02 07:00:09;;;;;;;11.65;5.22;;;;;;;;;;5014651;28;20164;-58
2022/06/02 07:02:38;;;;;;;10.82;4.65;;;;;;;;;;5008063;28;20041;-51
2022/06/02 07:05:03;;;;;;;10.70;5.38;;;;;;;;;;5012631;28;20103;-50
2022/06/02 07:07:48;;;;;;;8.73;5.10;;;;;;;;;;5013696;28;20477;-51
2022/06/02 07:10:13;;;;;;;10.25;4.95;;;;;;;;;;5021027;28;20165;-51
2022/06/02 07:12:51;;;;;;;6.88;4.93;;;;;;;;;;5024821;28;20096;-51
2022/06/02 07:15:37;;;;;;;9.90;5.25;;;;;;;;;;5022140;28;20032;-51
2022/06/02 07:18:11;;;;;;;9.57;4.75;;;;;;;;;;5017295;28;20037;-51
2022/06/02 07:20:48;;;;;;;8.82;4.10;;;;;;;;;;5023258;28;21185;-51
2022/06/02 07:23:17;;;;;;;7.13;4.53;;;;;;;;;;5021117;28;20030;-50
2022/06/02 07:26:01;;;;;;;8.98;4.65;;;;;;;;;;5001116;28;20922;-51
2022/06/02 07:28:36;;;;;;;8.73;4.88;;;;;;;;;;5013000;28;20624;-51
2022/06/02 07:31:13;;;;;;;7.40;4.43;;;;;;;;;;5010888;28;20057;-52
2022/06/02 07:33:41;;;;;;;7.15;4.40;;;;;;;;;;5020184;28;20036;-51
2022/06/02 07:36:16;;;;;;;7.15;3.97;;;;;;;;;;5018667;28;20076;-51
2022/06/02 07:38:56;;;;;;;6.43;3.70;;;;;;;;;;5018841;28;20029;-51
2022/06/02 07:41:24;;;;;;;8.30;4.25;;;;;;;;;;5023010;28;20507;-51
2022/06/02 07:43:49;;;;;;;10.30;4.32;;;;;;;;;;5020140;28;20535;-51
2022/06/02 07:46:24;;;;;;;8.57;3.90;;;;;;;;;;5022457;28;20029;-51
2022/06/02 07:48:55;;;;;;;6.38;4.00;;;;;;;;;;5023016;28;20283;-50
2022/06/02 07:51:25;;;;;;;6.25;3.90;;;;;;;;;;5019841;28;20091;-50
2022/06/02 07:54:03;;;;;;;8.50;3.95;;;;;;;;;;4994748;28;20700;-51
2022/06/02 07:56:47;;;;;;;6.60;3.45;;;;;;;;;;5013118;28;20528;-51
2022/06/02 07:59:22;;;;;;;8.95;3.80;;;;;;;;;;5011940;28;20025;-53
2022/06/02 08:01:47;;;;;;;8.05;3.88;;;;;;;;;;5003687;28;20033;-54
2022/06/02 08:04:17;;;;;;;7.87;4.17;;;;;;;;;;5017562;28;20029;-52
2022/06/02 08:06:42;;;;;;;8.82;4.10;;;;;;;;;;5001274;28;20065;-54
2022/06/02 08:09:27;;;;;;;6.47;3.63;;;;;;;;;;5015008;28;20076;-53
2022/06/02 08:11:58;;;;;;;7.68;3.70;;;;;;;;;;5024329;28;20018;-51
2022/06/02 08:14:26;;;;;;;7.68;4.05;;;;;;;;;;5019495;28;20476;-54
2022/06/02 08:16:59;;;;;;;4.72;3.03;;;;;;;;;;5018320;28;20076;-51
2022/06/02 08:19:39;;;;;;;6.55;3.30;;;;;;;;;;5015242;28;20056;-52
2022/06/02 08:22:06;;;;;;;6.25;3.38;;;;;;;;;;5019267;28;20048;-54
2022/06/02 08:24:38;;;;;;;5.28;3.30;;;;;;;;;;5006390;28;20018;-54
2022/06/02 08:27:15;;;;;;;8.77;3.70;;;;;;;;;;5021084;28;20017;-51
2022/06/02 08:29:43;;;;;;;6.82;3.53;;;;;;;;;;5019620;28;20026;-52
2022/06/02 08:32:20;;;;;;;5.75;3.17;;;;;;;;;;5017187;28;20045;-52
2022/06/02 08:35:18;;;;;;;6.05;3.72;;;;;;;;;;5014171;28;20033;-51
2022/06/02 08:37:46;;;;;;;5.50;3.28;;;;;;;;;;4987399;28;20034;-51
2022/06/02 08:40:30;;;;;;;5.75;4.00;;;;;;;;;;5013570;28;21042;-51
2022/06/02 08:43:07;;;;;;;5.97;3.33;;;;;;;;;;5002958;28;20403;-52
2022/06/02 08:45:38;;;;;;;7.25;3.72;;;;;;;;;;5013055;28;20018;-51
2022/06/02 08:48:03;;;;;;;6.50;3.45;;;;;;;;;;5004072;28;20076;-52
2022/06/02 08:50:33;;;;;;;5.67;3.60;;;;;;;;;;5019963;28;20417;-51
2022/06/02 08:53:03;;;;;;;4.57;3.30;;;;;;;;;;5021842;28;20010;-53
2022/06/02 08:55:40;;;;;;;7.53;3.47;;;;;;;;;;5020026;28;20034;-51
2022/06/02 08:58:35;;;;;;;7.68;3.70;;;;;;;;;;5017993;28;20036;-52
2022/06/02 09:01:21;;;;;;;6.68;3.60;;;;;;;;;;4999772;28;20108;-51
2022/06/02 09:03:46;;;;;;;9.77;4.22;;;;;;;;;;4986746;28;20516;-51
2022/06/02 09:06:26;;;;;;;9.63;5.00;;;;;;;;;;5015455;28;20030;-50
2022/06/02 09:08:52;;;;;;;9.48;5.25;;;;;;;;;;5017466;28;20058;-51
2022/06/02 09:11:44;;;;;;;9.87;5.27;;;;;;;;;;5018104;28;20103;-52
2022/06/02 09:14:30;;;;;;;11.23;5.45;;;;;;;;;;4989774;28;20037;-52
2022/06/02 09:16:55;;;;;;;7.40;5.15;;;;;;;;;;5014746;28;20060;-51
2022/06/02 09:19:38;;;;;;;10.20;5.40;;;;;;;;;;5018126;28;20048;-51
2022/06/02 09:22:03;;;;;;;12.73;5.50;;;;;;;;;;5020785;28;20152;-50
2022/06/02 09:24:32;;;;;;;10.03;4.40;;;;;;;;;;5016752;28;20096;-50
2022/06/02 09:27:00;;;;;;;9.02;4.60;;;;;;;;;;5014138;28;20132;-51
2022/06/02 09:29:36;;;;;;;7.88;4.10;;;;;;;;;;5017731;28;20029;-51
2022/06/02 09:32:03;;;;;;;8.35;4.45;;;;;;;;;;5005191;28;20652;-51
2022/06/02 09:34:31;;;;;;;10.38;4.35;;;;;;;;;;5014879;28;20028;-51
2022/06/02 09:36:59;;;;;;;8.90;4.15;;;;;;;;;;5018613;28;20025;-50
2022/06/02 09:39:43;;;;;;;6.25;3.47;;;;;;;;;;5015584;28;20024;-50
2022/06/02 09:42:11;;;;;;;6.15;3.30;;;;;;;;;;5016122;28;20018;-52
2022/06/02 09:44:41;;;;;;;9.07;3.90;;;;;;;;;;5014034;28;20472;-51
2022/06/02 09:47:18;;;;;;;8.27;3.08;;;;;;;;;;5013821;28;20033;-51
2022/06/02 09:49:46;;;;;;;5.25;3.00;;;;;;;;;;5017673;28;20037;-52
2022/06/02 09:52:27;;;;;;;5.05;3.20;;;;;;;;;;5009516;28;20420;-51
2022/06/02 09:54:53;;;;;;;9.32;3.03;;;;;;;;;;5019490;28;20100;-51
2022/06/02 10:00:26;;;;;;;6.97;2.97;;;;;;;;;;5015899;28;20045;-50
2022/06/02 10:02:51;;;;;;;5.90;2.92;;;;;;;;;;5019757;28;20033;-52
2022/06/02 10:05:20;;;;;;;5.03;2.80;;;;;;;;;;5011039;28;20485;-51
2022/06/02 10:08:04;;;;;;;5.25;3.10;;;;;;;;;;5010618;28;20024;-52
2022/06/02 10:10:34;;;;;;;7.43;2.80;;;;;;;;;;5013385;28;20035;-52
2022/06/02 10:13:13;;;;;;;6.93;2.90;;;;;;;;;;5016794;28;20029;-51
2022/06/02 10:15:42;;;;;;;5.75;3.15;;;;;;;;;;5018877;28;20017;-49
2022/06/02 10:18:07;;;;;;;5.80;2.80;;;;;;;;;;5018194;28;20025;-52
2022/06/02 10:20:51;;;;;;;5.97;2.70;;;;;;;;;;5014168;28;20575;-54
2022/06/02 10:23:19;;;;;;;6.47;2.85;;;;;;;;;;5011754;28;20010;-52
2022/06/02 10:26:03;;;;;;;5.20;2.55;;;;;;;;;;5014524;28;20022;-51
2022/06/02 10:28:28;;;;;;;4.78;2.30;;;;;;;;;;5019849;28;20554;-50
2022/06/02 10:30:54;;;;;;;4.93;2.50;;;;;;;;;;5012598;28;20046;-51
2022/06/02 10:33:23;;;;;;;4.63;2.00;;;;;;;;;;5017134;28;20022;-51
2022/06/02 10:36:06;;;;;;;5.07;2.08;;;;;;;;;;5012514;28;20707;-52
2022/06/02 10:38:33;;;;;;;8.52;2.50;;;;;;;;;;5012418;28;20026;-51
2022/06/02 10:41:04;;;;;;;4.70;2.38;;;;;;;;;;5013848;28;20077;-51
2022/06/02 10:43:29;;;;;;;6.82;2.20;;;;;;;;;;5017335;28;20092;-51
2022/06/02 10:45:55;;;;;;;5.80;2.10;;;;;;;;;;5015775;28;20022;-50
2022/06/02 10:48:35;;;;;;;5.10;1.85;;;;;;;;;;5022235;28;20029;-54
2022/06/02 10:51:10;;;;;;;6.18;2.10;;;;;;;;;;5020837;28;20041;-50
2022/06/02 10:53:35;;;;;;;6.90;2.58;;;;;;;;;;5020366;28;20029;-52
2022/06/02 10:56:08;;;;;;;4.93;2.03;;;;;;;;;;5021598;28;20051;-50
2022/06/02 10:58:39;;;;;;;8.73;1.90;;;;;;;;;;5005123;28;20064;-51
2022/06/02 11:01:11;;;;;;;6.43;1.88;;;;;;;;;;4998656;28;20121;-51
2022/06/02 11:03:55;;;;;;;4.70;1.90;;;;;;;;;;5017109;28;20043;-51
2022/06/02 11:06:27;;;;;;;4.38;1.83;;;;;;;;;;5013213;28;20083;-51
2022/06/02 11:08:52;;;;;;;4.93;1.90;;;;;;;;;;5001952;28;20056;-51
2022/06/02 11:11:33;;;;;;;4.93;2.00;;;;;;;;;;5021459;28;20109;-52
2022/06/02 11:14:04;;;;;;;5.13;1.85;;;;;;;;;;5015893;28;20276;-49
2022/06/02 11:16:35;;;;;;;4.03;1.75;;;;;;;;;;5014469;28;20021;-50
2022/06/02 11:19:09;;;;;;;7.50;2.40;;;;;;;;;;5022222;28;20034;-50
2022/06/02 11:21:53;;;;;;;5.32;1.85;;;;;;;;;;5023631;28;20030;-52
2022/06/02 11:24:27;;;;;;;5.63;1.83;;;;;;;;;;5013969;28;20084;-52
2022/06/02 11:27:11;;;;;;;4.20;2.05;;;;;;;;;;5012462;28;21642;-53
2022/06/02 11:29:55;;;;;;;4.35;1.90;;;;;;;;;;5018574;28;20033;-52
2022/06/02 11:32:23;;;;;;;4.53;1.80;;;;;;;;;;4976442;28;1155353;-51
2022/06/02 11:35:11;;;;;;;4.60;1.95;;;;;;;;;;5023619;28;20041;-53
2022/06/02 11:37:37;;;;;;;2.80;1.52;;;;;;;;;;5024186;28;20511;-52
2022/06/02 11:40:08;;;;;;;3.75;1.70;;;;;;;;;;5025068;28;20049;-52
2022/06/02 11:42:52;;;;;;;3.65;1.58;;;;;;;;;;5018587;28;20041;-51
2022/06/02 11:45:17;;;;;;;6.28;1.98;;;;;;;;;;5021198;28;20488;-51
2022/06/02 11:47:43;;;;;;;7.13;1.90;;;;;;;;;;5017395;28;20082;-51
2022/06/02 11:50:28;;;;;;;5.35;1.90;;;;;;;;;;5017782;28;20120;-51
2022/06/02 11:53:12;;;;;;;4.70;1.80;;;;;;;;;;5008506;28;20044;-50
2022/06/02 11:55:41;;;;;;;5.72;2.22;;;;;;;;;;5019591;28;20161;-52
2022/06/02 11:58:09;;;;;;;5.13;1.90;;;;;;;;;;5022543;28;20025;-52
2022/06/02 12:00:50;;;;;;;5.80;2.25;;;;;;;;;;5025497;28;20378;-52
2022/06/02 12:03:18;;;;;;;6.43;2.25;;;;;;;;;;5000497;28;20025;-52
2022/06/02 12:06:02;;;;;;;4.38;2.42;;;;;;;;;;5022666;28;20033;-50
2022/06/02 12:08:30;;;;;;;5.50;2.15;;;;;;;;;;5022712;28;20108;-51
2022/06/02 12:11:14;;;;;;;6.20;2.15;;;;;;;;;;5019010;28;20045;-52
2022/06/02 12:13:48;;;;;;;7.80;2.63;;;;;;;;;;5019562;28;20750;-51
2022/06/02 12:16:26;;;;;;;6.22;2.17;;;;;;;;;;5027526;28;20053;-51
2022/06/02 12:19:04;;;;;;;3.38;2.10;;;;;;;;;;5007683;28;20029;-49
2022/06/02 12:21:39;;;;;;;5.28;2.25;;;;;;;;;;5020777;28;20029;-51
2022/06/02 12:24:13;;;;;;;4.45;2.30;;;;;;;;;;5019660;28;20033;-50
2022/06/02 12:26:47;;;;;;;9.68;2.40;;;;;;;;;;5020751;28;20816;-52
2022/06/02 12:29:12;;;;;;;3.75;2.20;;;;;;;;;;5021478;28;20021;-51
2022/06/02 12:31:44;;;;;;;5.70;2.23;;;;;;;;;;5019933;28;20454;-53
2022/06/02 12:34:13;;;;;;;5.20;2.40;;;;;;;;;;5023793;28;20036;-50
2022/06/02 12:36:57;;;;;;;4.25;2.28;;;;;;;;;;5026807;28;20041;-51
2022/06/02 12:39:31;;;;;;;4.35;2.30;;;;;;;;;;5025440;28;20064;-51
2022/06/02 12:42:15;;;;;;;5.70;2.35;;;;;;;;;;5022644;28;20067;-51
2022/06/02 12:45:06;;;;;;;4.22;2.35;;;;;;;;;;5018796;28;20029;-52
2022/06/02 12:47:35;;;;;;;3.80;2.30;;;;;;;;;;5013475;28;20041;-52
2022/06/02 12:50:25;;;;;;;5.50;2.28;;;;;;;;;;4996267;28;20679;-52
2022/06/02 12:53:06;;;;;;;6.68;2.75;;;;;;;;;;5002400;28;20021;-53
2022/06/02 12:55:44;;;;;;;4.40;2.33;;;;;;;;;;5016319;28;20036;-51
2022/06/02 12:58:28;;;;;;;6.68;2.63;;;;;;;;;;5013487;28;20026;-50
2022/06/02 13:00:53;;;;;;;4.45;2.40;;;;;;;;;;5018234;28;20014;-52
2022/06/02 13:03:37;;;;;;;4.95;2.22;;;;;;;;;;5015534;28;20034;-54
2022/06/02 13:06:15;;;;;;;3.50;2.00;;;;;;;;;;5015586;28;20045;-51
2022/06/02 13:08:40;;;;;;;5.60;2.50;;;;;;;;;;5014939;28;20657;-52
2022/06/02 13:11:08;;;;;;;4.87;2.30;;;;;;;;;;5012537;28;20115;-53
2022/06/02 13:13:36;;;;;;;2.88;2.38;;;;;;;;;;5021295;28;20080;-52
2022/06/02 13:16:08;;;;;;;4.22;1.92;;;;;;;;;;5015300;28;20022;-51
2022/06/02 13:18:52;;;;;;;4.15;2.28;;;;;;;;;;5015704;28;20017;-53
2022/06/02 13:21:36;;;;;;;4.22;2.35;;;;;;;;;;5015301;28;20641;-51
2022/06/02 13:24:37;;;;;;;4.90;2.60;;;;;;;;;;5010166;28;20018;-51
2022/06/02 13:27:11;;;;;;;4.75;2.30;;;;;;;;;;4971378;28;20062;-52
2022/06/02 13:29:39;;;;;;;4.72;2.22;;;;;;;;;;5008985;28;20582;-50
2022/06/02 13:32:23;;;;;;;4.30;2.38;;;;;;;;;;5013992;28;20471;-50
2022/06/02 13:34:54;;;;;;;5.07;2.53;;;;;;;;;;5021492;28;20072;-50
2022/06/02 13:37:37;;;;;;;5.68;2.63;;;;;;;;;;5018224;28;20511;-50
2022/06/02 13:40:05;;;;;;;3.42;2.10;;;;;;;;;;5016432;28;20025;-49
2022/06/02 13:42:31;;;;;;;5.15;2.00;;;;;;;;;;5017623;28;20111;-50
2022/06/02 13:45:15;;;;;;;3.87;2.00;;;;;;;;;;5014332;28;20080;-51
2022/06/02 13:47:44;;;;;;;4.60;2.22;;;;;;;;;;5015246;28;20857;-50
2022/06/02 13:50:22;;;;;;;5.75;2.00;;;;;;;;;;5016175;28;20038;-51
2022/06/02 13:52:47;;;;;;;4.95;2.58;;;;;;;;;;5005002;28;20064;-50
2022/06/02 13:58:15;;;;;;;6.47;2.03;;;;;;;;;;5018021;28;20299;-50
2022/06/02 14:00:52;;;;;;;6.33;2.50;;;;;;;;;;5018159;28;20061;-50
2022/06/02 14:03:32;;;;;;;4.80;2.20;;;;;;;;;;5014249;28;20535;-51
2022/06/02 14:06:20;;;;;;;6.22;2.40;;;;;;;;;;5016193;28;20501;-49
2022/06/02 14:08:49;;;;;;;6.88;2.42;;;;;;;;;;5005404;28;20582;-50
2022/06/02 14:11:26;;;;;;;3.90;2.40;;;;;;;;;;5022683;28;20041;-50
2022/06/02 14:14:10;;;;;;;4.90;2.58;;;;;;;;;;5015620;28;20025;-50
2022/06/02 14:16:50;;;;;;;3.67;2.22;;;;;;;;;;5016798;28;21045;-50
2022/06/02 14:19:18;;;;;;;7.25;2.70;;;;;;;;;;5016716;28;20040;-49
2022/06/02 14:22:02;;;;;;;4.60;2.20;;;;;;;;;;5015742;28;20049;-50
2022/06/02 14:24:31;;;;;;;6.00;2.25;;;;;;;;;;5014675;28;20408;-49
2022/06/02 14:26:57;;;;;;;4.57;2.38;;;;;;;;;;5000638;28;20026;-51
2022/06/02 14:29:41;;;;;;;4.30;2.53;;;;;;;;;;5019986;28;20124;-51
2022/06/02 14:32:12;;;;;;;4.20;2.08;;;;;;;;;;5015796;28;20054;-50
2022/06/02 14:34:40;;;;;;;6.05;2.42;;;;;;;;;;5004021;28;21316;-51
2022/06/02 14:37:13;;;;;;;5.65;2.72;;;;;;;;;;5011938;28;20045;-50
2022/06/02 14:39:50;;;;;;;7.43;2.83;;;;;;;;;;5018517;28;20083;-51
2022/06/02 14:45:23;;;;;;;8.25;2.80;;;;;;;;;;5017175;28;20099;-51
2022/06/02 14:48:04;;;;;;;8.38;2.75;;;;;;;;;;5018512;28;20477;-50
2022/06/02 14:50:33;;;;;;;5.47;2.80;;;;;;;;;;5008813;28;20409;-51
2022/06/02 14:53:14;;;;;;;5.70;2.95;;;;;;;;;;5012472;28;20025;-50
2022/06/02 14:55:43;;;;;;;6.78;2.85;;;;;;;;;;5015328;28;20037;-53
2022/06/02 14:58:20;;;;;;;7.18;2.58;;;;;;;;;;5019520;28;20101;-53
2022/06/02 15:00:49;;;;;;;5.32;2.67;;;;;;;;;;4999792;28;20061;-49
2022/06/02 15:03:17;;;;;;;5.35;2.70;;;;;;;;;;5019110;28;20037;-53
2022/06/02 15:06:01;;;;;;;4.85;2.70;;;;;;;;;;5021457;28;20451;-50
2022/06/02 15:08:26;;;;;;;7.35;2.70;;;;;;;;;;5017161;28;20023;-54
2022/06/02 15:10:51;;;;;;;7.37;2.70;;;;;;;;;;5018823;28;20399;-51
2022/06/02 15:13:40;;;;;;;6.63;2.87;;;;;;;;;;5015598;28;20451;-52
2022/06/02 15:16:08;;;;;;;6.70;2.90;;;;;;;;;;5016041;28;20025;-52
2022/06/02 15:18:39;;;;;;;6.45;2.90;;;;;;;;;;5019822;28;20033;-50
2022/06/02 15:21:23;;;;;;;6.68;2.92;;;;;;;;;;4998320;28;20443;-51
2022/06/02 15:23:53;;;;;;;5.65;3.10;;;;;;;;;;5015318;28;20056;-51
2022/06/02 15:26:37;;;;;;;6.03;3.42;;;;;;;;;;4995235;28;20030;-53
2022/06/02 15:29:17;;;;;;;6.47;2.80;;;;;;;;;;5017141;28;20018;-51
2022/06/02 15:32:02;;;;;;;5.95;2.95;;;;;;;;;;5012687;28;20045;-52
2022/06/02 15:34:46;;;;;;;6.65;2.85;;;;;;;;;;5020787;28;20041;-51
2022/06/02 15:37:11;;;;;;;6.13;3.47;;;;;;;;;;5019730;28;20025;-50
2022/06/02 15:39:43;;;;;;;6.70;2.93;;;;;;;;;;5020287;28;20006;-51
2022/06/02 15:42:23;;;;;;;6.22;3.17;;;;;;;;;;5021308;28;20049;-51